createdAt,value
2018-08-27T00:00:40.293Z,1016.64
2018-08-27T00:01:39.994Z,1016.65
2018-08-27T00:02:39.968Z,1016.63
2018-08-27T00:03:39.985Z,1016.62
2018-08-27T00:04:40.095Z,1016.59
2018-08-27T00:05:40.193Z,1016.62
2018-08-27T00:06:39.973Z,1016.61
2018-08-27T00:07:40.263Z,1016.65
2018-08-27T00:08:40.224Z,1016.65
2018-08-27T00:09:40.068Z,1016.66
2018-08-27T00:10:40.145Z,1016.72
2018-08-27T00:11:39.982Z,1016.68
2018-08-27T00:12:40.008Z,1016.66
2018-08-27T00:13:39.996Z,1016.68
2018-08-27T00:14:40.005Z,1016.66
2018-08-27T00:15:40.060Z,1016.69
2018-08-27T00:16:40.018Z,1016.64
2018-08-27T00:17:40.237Z,1016.67
2018-08-27T00:18:40.027Z,1016.61
2018-08-27T00:19:40.005Z,1016.6
2018-08-27T00:20:40.011Z,1016.59
2018-08-27T00:21:40.109Z,1016.54
2018-08-27T00:22:40.093Z,1016.51
2018-08-27T00:23:40.022Z,1016.52
2018-08-27T00:24:40.001Z,1016.51
2018-08-27T00:25:40.023Z,1016.5
2018-08-27T00:26:40.036Z,1016.44
2018-08-27T00:27:40.081Z,1016.49
2018-08-27T00:28:40.014Z,1016.44
2018-08-27T00:29:40.157Z,1016.47
2018-08-27T00:30:40.011Z,1016.43
2018-08-27T00:31:40.085Z,1016.47
2018-08-27T00:32:40.037Z,1016.45
2018-08-27T00:33:40.358Z,1016.47
2018-08-27T00:34:40.069Z,1016.46
2018-08-27T00:35:40.153Z,1016.48
2018-08-27T00:36:40.005Z,1016.47
2018-08-27T00:37:40.247Z,1016.48
2018-08-27T00:38:40.080Z,1016.47
2018-08-27T00:39:40.058Z,1016.43
2018-08-27T00:40:40.132Z,1016.4
2018-08-27T00:41:40.020Z,1016.4
2018-08-27T00:42:40.187Z,1016.4
2018-08-27T00:43:40.058Z,1016.39
2018-08-27T00:44:40.030Z,1016.4
2018-08-27T00:45:40.033Z,1016.42
2018-08-27T00:46:40.634Z,1016.44
2018-08-27T00:47:40.081Z,1016.42
2018-08-27T00:48:40.046Z,1016.45
2018-08-27T00:49:40.109Z,1016.45
2018-08-27T00:50:40.103Z,1016.44
2018-08-27T00:51:40.046Z,1016.43
2018-08-27T00:52:40.108Z,1016.42
2018-08-27T00:53:40.185Z,1016.43
2018-08-27T00:54:40.316Z,1016.4
2018-08-27T00:55:40.111Z,1016.43
2018-08-27T00:56:40.032Z,1016.46
2018-08-27T00:57:40.108Z,1016.4
2018-08-27T00:58:40.058Z,1016.36
2018-08-27T00:59:40.053Z,1016.3
2018-08-27T01:00:40.225Z,1016.35
2018-08-27T01:01:40.033Z,1016.44
2018-08-27T01:02:40.059Z,1016.41
2018-08-27T01:03:40.034Z,1016.42
2018-08-27T01:04:40.053Z,1016.42
2018-08-27T01:05:40.045Z,1016.45
2018-08-27T01:06:40.033Z,1016.42
2018-08-27T01:07:40.064Z,1016.42
2018-08-27T01:08:40.094Z,1016.49
2018-08-27T01:09:40.066Z,1016.45
2018-08-27T01:10:40.073Z,1016.41
2018-08-27T01:11:40.047Z,1016.43
2018-08-27T01:12:40.041Z,1016.41
2018-08-27T01:13:40.045Z,1016.44
2018-08-27T01:14:40.075Z,1016.42
2018-08-27T01:15:40.059Z,1016.41
2018-08-27T01:16:40.069Z,1016.41
2018-08-27T01:17:40.065Z,1016.35
2018-08-27T01:18:40.081Z,1016.38
2018-08-27T01:19:40.104Z,1016.38
2018-08-27T01:20:40.244Z,1016.32
2018-08-27T01:21:40.083Z,1016.34
2018-08-27T01:22:40.464Z,1016.29
2018-08-27T01:23:40.099Z,1016.28
2018-08-27T01:24:40.217Z,1016.29
2018-08-27T01:25:40.254Z,1016.27
2018-08-27T01:26:40.084Z,1016.31
2018-08-27T01:27:40.069Z,1016.32
2018-08-27T01:28:40.098Z,1016.28
2018-08-27T01:29:40.159Z,1016.28
2018-08-27T01:30:40.090Z,1016.27
2018-08-27T01:31:40.095Z,1016.24
2018-08-27T01:32:40.282Z,1016.24
2018-08-27T01:33:40.412Z,1016.24
2018-08-27T01:34:40.243Z,1016.15
2018-08-27T01:35:40.077Z,1016.2
2018-08-27T01:36:40.399Z,1016.16
2018-08-27T01:37:40.077Z,1016.2
2018-08-27T01:38:40.102Z,1016.22
2018-08-27T01:39:40.162Z,1016.24
2018-08-27T01:40:40.147Z,1016.23
2018-08-27T01:41:40.216Z,1016.2
2018-08-27T01:42:40.127Z,1016.13
2018-08-27T01:43:40.103Z,1016.16
2018-08-27T01:44:40.129Z,1016.15
2018-08-27T01:45:40.332Z,1016.09
2018-08-27T01:46:40.286Z,1016.04
2018-08-27T01:47:40.234Z,1016.08
2018-08-27T01:48:40.347Z,1016.07
2018-08-27T01:49:40.143Z,1016.02
2018-08-27T01:50:40.130Z,1015.99
2018-08-27T01:51:40.114Z,1016.03
2018-08-27T01:52:40.203Z,1016.02
2018-08-27T01:53:40.096Z,1016.05
2018-08-27T01:54:40.117Z,1016.08
2018-08-27T01:55:40.337Z,1016.09
2018-08-27T01:56:40.412Z,1016.08
2018-08-27T01:57:40.096Z,1016.08
2018-08-27T01:58:40.204Z,1016.1
2018-08-27T01:59:40.260Z,1016.09
2018-08-27T02:00:40.107Z,1016.09
2018-08-27T02:01:40.139Z,1016.07
2018-08-27T02:02:40.111Z,1016.12
2018-08-27T02:03:40.454Z,1016.06
2018-08-27T02:04:40.211Z,1016.09
2018-08-27T02:05:40.349Z,1016.07
2018-08-27T02:06:40.152Z,1016.09
2018-08-27T02:07:40.176Z,1016.08
2018-08-27T02:08:40.229Z,1016.05
2018-08-27T02:09:40.297Z,1016.02
2018-08-27T02:10:40.226Z,1016.07
2018-08-27T02:11:40.131Z,1016.07
2018-08-27T02:12:40.250Z,1016.05
2018-08-27T02:13:40.187Z,1016.07
2018-08-27T02:14:40.192Z,1016.06
2018-08-27T02:15:40.159Z,1016.07
2018-08-27T02:16:40.146Z,1016.07
2018-08-27T02:17:40.155Z,1016.06
2018-08-27T02:18:40.149Z,1016.02
2018-08-27T02:19:40.139Z,1016.03
2018-08-27T02:20:40.201Z,1016
2018-08-27T02:21:40.189Z,1016
2018-08-27T02:22:40.174Z,1015.98
2018-08-27T02:23:40.124Z,1016.02
2018-08-27T02:24:40.173Z,1016.03
2018-08-27T02:25:40.147Z,1016.04
2018-08-27T02:26:40.154Z,1016.04
2018-08-27T02:27:40.146Z,1016.02
2018-08-27T02:28:40.163Z,1016.04
2018-08-27T02:29:40.512Z,1016.01
2018-08-27T02:30:40.183Z,1016
2018-08-27T02:31:40.175Z,1015.98
2018-08-27T02:32:40.169Z,1015.99
2018-08-27T02:33:40.444Z,1016.01
2018-08-27T02:34:40.181Z,1016.02
2018-08-27T02:35:40.166Z,1016.03
2018-08-27T02:36:40.272Z,1016.08
2018-08-27T02:37:40.261Z,1015.98
2018-08-27T02:38:40.149Z,1016.02
2018-08-27T02:39:40.609Z,1016.03
2018-08-27T02:40:40.223Z,1016
2018-08-27T02:41:40.192Z,1015.98
2018-08-27T02:42:40.306Z,1016
2018-08-27T02:43:40.166Z,1015.95
2018-08-27T02:44:40.280Z,1015.96
2018-08-27T02:45:40.287Z,1015.96
2018-08-27T02:46:40.219Z,1015.95
2018-08-27T02:47:40.352Z,1015.92
2018-08-27T02:48:40.252Z,1015.88
2018-08-27T02:49:40.481Z,1015.93
2018-08-27T02:50:40.351Z,1015.91
2018-08-27T02:51:40.220Z,1015.97
2018-08-27T02:52:40.208Z,1015.96
2018-08-27T02:53:40.262Z,1015.97
2018-08-27T02:54:40.191Z,1016
2018-08-27T02:55:40.383Z,1015.99
2018-08-27T02:56:40.255Z,1015.98
2018-08-27T02:57:40.168Z,1015.96
2018-08-27T02:58:40.250Z,1015.97
2018-08-27T02:59:40.525Z,1016
2018-08-27T03:00:40.356Z,1016
2018-08-27T03:01:40.241Z,1016
2018-08-27T03:02:40.327Z,1015.96
2018-08-27T03:03:40.206Z,1015.99
2018-08-27T03:04:40.401Z,1016
2018-08-27T03:05:40.212Z,1015.96
2018-08-27T03:06:40.210Z,1015.96
2018-08-27T03:07:40.319Z,1015.93
2018-08-27T03:08:40.328Z,1015.92
2018-08-27T03:09:40.380Z,1015.93
2018-08-27T03:10:40.507Z,1015.93
2018-08-27T03:11:40.251Z,1015.95
2018-08-27T03:12:40.252Z,1015.9
2018-08-27T03:13:40.206Z,1015.92
2018-08-27T03:14:40.222Z,1015.91
2018-08-27T03:15:40.280Z,1015.86
2018-08-27T03:16:40.372Z,1015.87
2018-08-27T03:17:40.292Z,1015.82
2018-08-27T03:18:40.200Z,1015.87
2018-08-27T03:19:40.514Z,1015.83
2018-08-27T03:20:40.406Z,1015.86
2018-08-27T03:21:40.204Z,1015.89
2018-08-27T03:22:40.232Z,1015.86
2018-08-27T03:23:40.258Z,1015.86
2018-08-27T03:24:40.233Z,1015.82
2018-08-27T03:25:40.210Z,1015.85
2018-08-27T03:26:40.221Z,1015.84
2018-08-27T03:27:40.262Z,1015.85
2018-08-27T03:28:40.212Z,1015.88
2018-08-27T03:29:40.224Z,1015.89
2018-08-27T03:30:40.253Z,1015.9
2018-08-27T03:31:40.237Z,1015.88
2018-08-27T03:32:40.229Z,1015.86
2018-08-27T03:33:40.243Z,1015.82
2018-08-27T03:34:40.243Z,1015.84
2018-08-27T03:35:40.213Z,1015.89
2018-08-27T03:36:40.236Z,1015.9
2018-08-27T03:37:40.225Z,1015.86
2018-08-27T03:38:40.239Z,1015.84
2018-08-27T03:39:40.230Z,1015.86
2018-08-27T03:40:40.382Z,1015.84
2018-08-27T03:41:40.283Z,1015.81
2018-08-27T03:42:40.244Z,1015.78
2018-08-27T03:43:40.245Z,1015.74
2018-08-27T03:44:40.244Z,1015.73
2018-08-27T03:45:40.228Z,1015.72
2018-08-27T03:46:40.236Z,1015.76
2018-08-27T03:47:40.255Z,1015.73
2018-08-27T03:48:40.600Z,1015.76
2018-08-27T03:49:40.554Z,1015.77
2018-08-27T03:50:40.255Z,1015.78
2018-08-27T03:51:40.321Z,1015.77
2018-08-27T03:52:40.243Z,1015.78
2018-08-27T03:53:40.433Z,1015.79
2018-08-27T03:54:40.407Z,1015.79
2018-08-27T03:55:40.252Z,1015.78
2018-08-27T03:56:40.281Z,1015.78
2018-08-27T03:57:40.397Z,1015.79
2018-08-27T03:58:40.251Z,1015.8
2018-08-27T03:59:40.314Z,1015.79
2018-08-27T04:00:40.344Z,1015.79
2018-08-27T04:01:40.261Z,1015.75
2018-08-27T04:02:40.300Z,1015.76
2018-08-27T04:03:40.765Z,1015.76
2018-08-27T04:04:40.412Z,1015.73
2018-08-27T04:05:40.423Z,1015.74
2018-08-27T04:06:40.275Z,1015.72
2018-08-27T04:07:40.810Z,1015.79
2018-08-27T04:08:40.292Z,1015.78
2018-08-27T04:09:40.452Z,1015.8
2018-08-27T04:10:40.279Z,1015.82
2018-08-27T04:11:40.259Z,1015.84
2018-08-27T04:12:40.425Z,1015.86
2018-08-27T04:13:40.276Z,1015.84
2018-08-27T04:14:40.266Z,1015.83
2018-08-27T04:15:40.539Z,1015.82
2018-08-27T04:16:40.417Z,1015.79
2018-08-27T04:17:40.257Z,1015.84
2018-08-27T04:18:40.277Z,1015.84
2018-08-27T04:19:40.500Z,1015.85
2018-08-27T04:20:40.617Z,1015.87
2018-08-27T04:21:40.333Z,1015.87
2018-08-27T04:22:40.357Z,1015.9
2018-08-27T04:23:40.269Z,1015.88
2018-08-27T04:24:40.275Z,1015.89
2018-08-27T04:25:40.298Z,1015.92
2018-08-27T04:26:40.281Z,1015.92
2018-08-27T04:27:40.278Z,1015.94
2018-08-27T04:28:40.325Z,1015.9
2018-08-27T04:29:40.618Z,1015.91
2018-08-27T04:30:41.102Z,1015.93
2018-08-27T04:31:40.323Z,1015.93
2018-08-27T04:32:40.431Z,1015.92
2018-08-27T04:33:40.320Z,1015.88
2018-08-27T04:34:40.382Z,1015.93
2018-08-27T04:35:40.424Z,1015.92
2018-08-27T04:36:40.485Z,1015.89
2018-08-27T04:37:40.376Z,1015.88
2018-08-27T04:38:40.328Z,1015.88
2018-08-27T04:39:40.409Z,1015.94
2018-08-27T04:40:40.304Z,1015.91
2018-08-27T04:41:40.751Z,1015.93
2018-08-27T04:42:40.964Z,1015.89
2018-08-27T04:43:40.334Z,1015.9
2018-08-27T04:44:40.443Z,1015.9
2018-08-27T04:45:40.313Z,1015.9
2018-08-27T04:46:40.414Z,1015.92
2018-08-27T04:47:40.393Z,1015.89
2018-08-27T04:48:40.338Z,1015.92
2018-08-27T04:49:40.867Z,1015.93
2018-08-27T04:50:40.333Z,1015.91
2018-08-27T04:51:40.319Z,1015.89
2018-08-27T04:52:40.329Z,1015.94
2018-08-27T04:53:40.306Z,1015.92
2018-08-27T04:54:40.487Z,1015.92
2018-08-27T04:55:40.325Z,1015.91
2018-08-27T04:56:40.355Z,1015.91
2018-08-27T04:57:40.526Z,1015.92
2018-08-27T04:58:40.575Z,1015.92
2018-08-27T04:59:40.396Z,1015.92
2018-08-27T05:00:40.355Z,1015.94
2018-08-27T05:01:40.355Z,1015.94
2018-08-27T05:02:40.340Z,1015.96
2018-08-27T05:03:40.360Z,1015.92
2018-08-27T05:04:40.399Z,1015.97
2018-08-27T05:05:40.337Z,1015.98
2018-08-27T05:06:40.387Z,1016
2018-08-27T05:07:40.363Z,1016.02
2018-08-27T05:08:40.448Z,1015.96
2018-08-27T05:09:40.329Z,1015.99
2018-08-27T05:10:40.318Z,1015.99
2018-08-27T05:11:40.357Z,1016.01
2018-08-27T05:12:40.470Z,1016
2018-08-27T05:13:40.348Z,1016.01
2018-08-27T05:14:40.391Z,1016.02
2018-08-27T05:15:40.552Z,1016.07
2018-08-27T05:16:40.443Z,1016.08
2018-08-27T05:17:41.970Z,1016.04
2018-08-27T05:18:40.508Z,1016.06
2018-08-27T05:19:40.671Z,1016.05
2018-08-27T05:20:40.589Z,1016.1
2018-08-27T05:21:40.327Z,1016.07
2018-08-27T05:22:40.368Z,1016.08
2018-08-27T05:23:40.922Z,1016.08
2018-08-27T05:24:40.407Z,1016.08
2018-08-27T05:25:40.672Z,1016.12
2018-08-27T05:26:40.515Z,1016.15
2018-08-27T05:27:40.417Z,1016.13
2018-08-27T05:28:40.431Z,1016.14
2018-08-27T05:29:40.736Z,1016.16
2018-08-27T05:30:40.915Z,1016.14
2018-08-27T05:31:40.384Z,1016.17
2018-08-27T05:32:40.422Z,1016.16
2018-08-27T05:33:40.408Z,1016.13
2018-08-27T05:34:40.768Z,1016.15
2018-08-27T05:35:40.559Z,1016.14
2018-08-27T05:36:40.844Z,1016.12
2018-08-27T05:37:40.463Z,1016.09
2018-08-27T05:38:40.775Z,1016.11
2018-08-27T05:39:40.405Z,1016.12
2018-08-27T05:40:40.534Z,1016.19
2018-08-27T05:41:40.416Z,1016.14
2018-08-27T05:42:40.380Z,1016.21
2018-08-27T05:43:40.432Z,1016.26
2018-08-27T05:44:40.972Z,1016.3
2018-08-27T05:45:40.431Z,1016.3
2018-08-27T05:46:40.574Z,1016.35
2018-08-27T05:47:40.530Z,1016.38
2018-08-27T05:48:40.383Z,1016.4
2018-08-27T05:49:40.428Z,1016.42
2018-08-27T05:50:40.504Z,1016.43
2018-08-27T05:51:40.403Z,1016.39
2018-08-27T05:52:40.706Z,1016.46
2018-08-27T05:53:40.486Z,1016.45
2018-08-27T05:54:40.861Z,1016.45
2018-08-27T05:55:40.927Z,1016.41
2018-08-27T05:56:40.439Z,1016.4
2018-08-27T05:57:40.733Z,1016.45
2018-08-27T05:58:40.588Z,1016.42
2018-08-27T05:59:40.407Z,1016.42
2018-08-27T06:00:40.555Z,1016.41
2018-08-27T06:01:40.663Z,1016.46
2018-08-27T06:02:40.416Z,1016.39
2018-08-27T06:03:40.456Z,1016.43
2018-08-27T06:04:41.280Z,1016.35
2018-08-27T06:05:40.777Z,1016.32
2018-08-27T06:06:40.465Z,1016.29
2018-08-27T06:07:40.413Z,1016.31
2018-08-27T06:08:40.491Z,1016.36
2018-08-27T06:09:40.485Z,1016.35
2018-08-27T06:10:40.821Z,1016.39
2018-08-27T06:11:40.591Z,1016.41
2018-08-27T06:12:40.466Z,1016.45
2018-08-27T06:13:40.441Z,1016.46
2018-08-27T06:14:40.429Z,1016.45
2018-08-27T06:15:40.795Z,1016.49
2018-08-27T06:16:40.571Z,1016.44
2018-08-27T06:17:40.611Z,1016.43
2018-08-27T06:18:40.434Z,1016.49
2018-08-27T06:19:40.465Z,1016.45
2018-08-27T06:20:40.519Z,1016.43
2018-08-27T06:21:40.452Z,1016.43
2018-08-27T06:22:40.443Z,1016.4
2018-08-27T06:23:40.428Z,1016.42
2018-08-27T06:24:40.406Z,1016.38
2018-08-27T06:25:41.266Z,1016.4
2018-08-27T06:26:40.411Z,1016.45
2018-08-27T06:27:40.743Z,1016.46
2018-08-27T06:28:40.572Z,1016.48
2018-08-27T06:29:40.577Z,1016.48
2018-08-27T06:30:40.464Z,1016.56
2018-08-27T06:31:40.416Z,1016.57
2018-08-27T06:32:40.434Z,1016.66
2018-08-27T06:33:40.488Z,1016.63
2018-08-27T06:34:40.437Z,1016.66
2018-08-27T06:35:40.794Z,1016.61
2018-08-27T06:36:40.437Z,1016.57
2018-08-27T06:37:40.706Z,1016.63
2018-08-27T06:38:40.450Z,1016.59
2018-08-27T06:39:40.846Z,1016.59
2018-08-27T06:40:40.498Z,1016.6
2018-08-27T06:41:40.743Z,1016.64
2018-08-27T06:42:40.495Z,1016.63
2018-08-27T06:43:40.773Z,1016.64
2018-08-27T06:44:40.491Z,1016.68
2018-08-27T06:45:40.483Z,1016.68
2018-08-27T06:46:40.476Z,1016.69
2018-08-27T06:47:40.595Z,1016.77
2018-08-27T06:48:40.482Z,1016.78
2018-08-27T06:49:41.001Z,1016.73
2018-08-27T06:50:40.506Z,1016.73
2018-08-27T06:51:40.496Z,1016.76
2018-08-27T06:52:40.878Z,1016.76
2018-08-27T06:53:40.454Z,1016.75
2018-08-27T06:54:40.572Z,1016.85
2018-08-27T06:55:40.457Z,1016.85
2018-08-27T06:56:40.711Z,1016.85
2018-08-27T06:57:40.528Z,1016.88
2018-08-27T06:58:40.847Z,1016.86
2018-08-27T06:59:40.478Z,1016.91
2018-08-27T07:00:40.775Z,1016.96
2018-08-27T07:01:40.483Z,1016.95
2018-08-27T07:02:40.669Z,1016.91
2018-08-27T07:03:41.068Z,1016.88
2018-08-27T07:04:40.646Z,1016.87
2018-08-27T07:05:40.485Z,1016.96
2018-08-27T07:06:41.299Z,1016.89
2018-08-27T07:07:40.648Z,1016.95
2018-08-27T07:08:40.512Z,1016.94
2018-08-27T07:09:40.945Z,1016.97
2018-08-27T07:10:40.480Z,1016.98
2018-08-27T07:11:40.685Z,1016.98
2018-08-27T07:12:40.513Z,1016.98
2018-08-27T07:13:40.510Z,1016.97
2018-08-27T07:14:41.007Z,1016.89
2018-08-27T07:15:40.694Z,1016.87
2018-08-27T07:16:40.633Z,1016.79
2018-08-27T07:17:40.564Z,1016.73
2018-08-27T07:18:40.487Z,1016.76
2018-08-27T07:19:40.748Z,1016.8
2018-08-27T07:20:40.478Z,1016.84
2018-08-27T07:21:40.598Z,1016.82
2018-08-27T07:22:40.614Z,1016.78
2018-08-27T07:23:40.852Z,1016.82
2018-08-27T07:24:40.481Z,1016.74
2018-08-27T07:25:40.488Z,1016.69
2018-08-27T07:26:40.530Z,1016.72
2018-08-27T07:27:40.557Z,1016.73
2018-08-27T07:28:40.631Z,1016.67
2018-08-27T07:29:40.505Z,1016.67
2018-08-27T07:30:40.784Z,1016.61
2018-08-27T07:31:40.550Z,1016.59
2018-08-27T07:32:40.791Z,1016.57
2018-08-27T07:33:40.514Z,1016.65
2018-08-27T07:34:40.903Z,1016.65
2018-08-27T07:35:40.794Z,1016.66
2018-08-27T07:36:40.943Z,1016.66
2018-08-27T07:37:40.498Z,1016.64
2018-08-27T07:38:40.510Z,1016.64
2018-08-27T07:39:40.524Z,1016.62
2018-08-27T07:40:40.533Z,1016.63
2018-08-27T07:41:40.526Z,1016.62
2018-08-27T07:42:40.688Z,1016.61
2018-08-27T07:43:41.607Z,1016.6
2018-08-27T07:44:40.517Z,1016.63
2018-08-27T07:45:40.708Z,1016.57
2018-08-27T07:46:40.590Z,1016.58
2018-08-27T07:47:41.828Z,1016.56
2018-08-27T07:48:41.111Z,1016.53
2018-08-27T07:49:40.487Z,1016.47
2018-08-27T07:50:40.628Z,1016.52
2018-08-27T07:51:40.911Z,1016.47
2018-08-27T07:52:40.816Z,1016.54
2018-08-27T07:53:40.518Z,1016.51
2018-08-27T07:54:40.558Z,1016.51
2018-08-27T07:55:40.593Z,1016.48
2018-08-27T07:56:40.663Z,1016.5
2018-08-27T07:57:40.532Z,1016.5
2018-08-27T07:58:40.859Z,1016.55
2018-08-27T07:59:40.676Z,1016.57
2018-08-27T08:00:40.497Z,1016.57
2018-08-27T08:01:40.576Z,1016.54
2018-08-27T08:02:40.900Z,1016.56
2018-08-27T08:03:40.619Z,1016.55
2018-08-27T08:04:40.919Z,1016.51
2018-08-27T08:05:40.525Z,1016.5
2018-08-27T08:06:40.681Z,1016.47
2018-08-27T08:07:40.582Z,1016.48
2018-08-27T08:08:40.544Z,1016.55
2018-08-27T08:09:40.720Z,1016.53
2018-08-27T08:10:40.563Z,1016.58
2018-08-27T08:11:41.310Z,1016.61
2018-08-27T08:12:40.542Z,1016.59
2018-08-27T08:13:40.763Z,1016.6
2018-08-27T08:14:41.067Z,1016.6
2018-08-27T08:15:40.563Z,1016.64
2018-08-27T08:16:40.625Z,1016.63
2018-08-27T08:17:40.587Z,1016.64
2018-08-27T08:18:40.711Z,1016.6
2018-08-27T08:19:40.535Z,1016.63
2018-08-27T08:20:40.717Z,1016.63
2018-08-27T08:21:40.718Z,1016.68
2018-08-27T08:22:40.710Z,1016.65
2018-08-27T08:23:40.723Z,1016.7
2018-08-27T08:24:40.537Z,1016.7
2018-08-27T08:25:41.835Z,1016.66
2018-08-27T08:26:40.618Z,1016.75
2018-08-27T08:27:41.666Z,1016.8
2018-08-27T08:28:40.968Z,1016.75
2018-08-27T08:29:40.971Z,1016.83
2018-08-27T08:30:41.054Z,1016.84
2018-08-27T08:31:40.580Z,1016.85
2018-08-27T08:32:40.722Z,1016.93
2018-08-27T08:33:40.569Z,1016.91
2018-08-27T08:34:40.699Z,1016.93
2018-08-27T08:35:40.646Z,1016.93
2018-08-27T08:36:41.293Z,1016.94
2018-08-27T08:37:40.605Z,1016.91
2018-08-27T08:38:40.614Z,1016.89
2018-08-27T08:39:40.618Z,1016.89
2018-08-27T08:40:41.209Z,1016.87
2018-08-27T08:41:40.602Z,1016.82
2018-08-27T08:42:40.582Z,1016.82
2018-08-27T08:43:40.817Z,1016.85
2018-08-27T08:44:40.889Z,1016.88
2018-08-27T08:45:41.213Z,1016.83
2018-08-27T08:46:40.830Z,1016.89
2018-08-27T08:47:40.652Z,1016.9
2018-08-27T08:48:40.588Z,1016.86
2018-08-27T08:49:40.697Z,1016.88
2018-08-27T08:50:40.662Z,1016.86
2018-08-27T08:51:40.721Z,1016.79
2018-08-27T08:52:40.909Z,1016.85
2018-08-27T08:53:40.930Z,1016.76
2018-08-27T08:54:40.584Z,1016.75
2018-08-27T08:55:40.619Z,1016.81
2018-08-27T08:56:40.742Z,1016.84
2018-08-27T08:57:40.742Z,1016.87
2018-08-27T08:58:40.613Z,1016.91
2018-08-27T08:59:40.585Z,1016.87
2018-08-27T09:00:40.904Z,1016.9
2018-08-27T09:01:40.791Z,1016.89
2018-08-27T09:02:41.216Z,1016.87
2018-08-27T09:03:40.743Z,1016.87
2018-08-27T09:04:40.796Z,1016.88
2018-08-27T09:05:42.157Z,1016.88
2018-08-27T09:06:40.696Z,1016.83
2018-08-27T09:07:40.812Z,1016.85
2018-08-27T09:08:40.910Z,1016.79
2018-08-27T09:09:40.785Z,1016.82
2018-08-27T09:10:41.389Z,1016.83
2018-08-27T09:11:40.610Z,1016.87
2018-08-27T09:12:40.604Z,1016.9
2018-08-27T09:13:40.610Z,1016.92
2018-08-27T09:14:40.615Z,1016.96
2018-08-27T09:15:40.670Z,1016.97
2018-08-27T09:16:40.847Z,1016.95
2018-08-27T09:17:40.935Z,1016.98
2018-08-27T09:18:40.634Z,1016.99
2018-08-27T09:19:40.607Z,1016.99
2018-08-27T09:20:40.761Z,1017
2018-08-27T09:21:40.698Z,1017.01
2018-08-27T09:22:40.809Z,1016.98
2018-08-27T09:23:40.917Z,1016.98
2018-08-27T09:24:41.452Z,1017.08
2018-08-27T09:25:40.627Z,1017.07
2018-08-27T09:26:40.669Z,1017.04
2018-08-27T09:27:41.062Z,1017.01
2018-08-27T09:28:40.647Z,1017.08
2018-08-27T09:29:40.824Z,1017.08
2018-08-27T09:30:40.731Z,1017.03
2018-08-27T09:31:41.017Z,1016.96
2018-08-27T09:32:41.049Z,1016.99
2018-08-27T09:33:40.623Z,1017.01
2018-08-27T09:34:40.730Z,1017.02
2018-08-27T09:35:40.681Z,1016.92
2018-08-27T09:36:40.695Z,1016.97
2018-08-27T09:37:40.742Z,1017.06
2018-08-27T09:38:40.716Z,1017.08
2018-08-27T09:39:40.700Z,1017.11
2018-08-27T09:40:40.963Z,1017.1
2018-08-27T09:41:41.497Z,1017.13
2018-08-27T09:42:40.715Z,1017.17
2018-08-27T09:43:40.972Z,1017.11
2018-08-27T09:44:41.122Z,1017.09
2018-08-27T09:45:40.713Z,1017.04
2018-08-27T09:46:40.811Z,1017.08
2018-08-27T09:47:40.689Z,1017.02
2018-08-27T09:48:40.679Z,1017.08
2018-08-27T09:49:40.661Z,1017.11
2018-08-27T09:50:40.701Z,1017.12
2018-08-27T09:51:40.782Z,1017.14
2018-08-27T09:52:40.867Z,1017.14
2018-08-27T09:53:40.961Z,1017.11
2018-08-27T09:54:40.673Z,1017.19
2018-08-27T09:55:40.685Z,1017.14
2018-08-27T09:56:40.851Z,1017.13
2018-08-27T09:57:40.661Z,1017.18
2018-08-27T09:58:40.863Z,1017.2
2018-08-27T09:59:40.655Z,1017.23
2018-08-27T10:00:40.976Z,1017.19
2018-08-27T10:01:40.659Z,1017.21
2018-08-27T10:02:40.782Z,1017.21
2018-08-27T10:03:40.677Z,1017.19
2018-08-27T10:04:41.004Z,1017.16
2018-08-27T10:05:40.649Z,1017.16
2018-08-27T10:06:40.668Z,1017.15
2018-08-27T10:07:40.647Z,1017.16
2018-08-27T10:08:40.697Z,1017.19
2018-08-27T10:09:40.714Z,1017.19
2018-08-27T10:10:41.053Z,1017.21
2018-08-27T10:11:40.655Z,1017.18
2018-08-27T10:12:40.853Z,1017.21
2018-08-27T10:13:40.807Z,1017.22
2018-08-27T10:14:40.666Z,1017.21
2018-08-27T10:15:40.670Z,1017.23
2018-08-27T10:16:40.736Z,1017.22
2018-08-27T10:17:40.682Z,1017.22
2018-08-27T10:18:41.084Z,1017.23
2018-08-27T10:19:40.763Z,1017.23
2018-08-27T10:20:40.835Z,1017.16
2018-08-27T10:21:40.922Z,1017.06
2018-08-27T10:22:40.990Z,1017.11
2018-08-27T10:23:40.757Z,1017.09
2018-08-27T10:24:40.721Z,1017.09
2018-08-27T10:25:40.698Z,1017.13
2018-08-27T10:26:40.766Z,1017.14
2018-08-27T10:27:40.672Z,1017.14
2018-08-27T10:28:40.724Z,1017.17
2018-08-27T10:29:40.852Z,1017.15
2018-08-27T10:30:40.691Z,1017.13
2018-08-27T10:31:40.928Z,1017.12
2018-08-27T10:32:41.022Z,1017.1
2018-08-27T10:33:41.107Z,1017.14
2018-08-27T10:34:40.799Z,1017.11
2018-08-27T10:35:40.903Z,1017.1
2018-08-27T10:36:40.727Z,1017.12
2018-08-27T10:37:40.749Z,1017.12
2018-08-27T10:38:40.737Z,1017.09
2018-08-27T10:39:40.765Z,1017.12
2018-08-27T10:40:40.706Z,1017.09
2018-08-27T10:41:40.783Z,1017.13
2018-08-27T10:42:40.870Z,1017.09
2018-08-27T10:43:40.689Z,1017.15
2018-08-27T10:44:41.127Z,1017.17
2018-08-27T10:45:40.780Z,1017.15
2018-08-27T10:46:40.717Z,1017.12
2018-08-27T10:47:41.007Z,1017.12
2018-08-27T10:48:40.759Z,1017.16
2018-08-27T10:49:40.834Z,1017.14
2018-08-27T10:50:40.765Z,1017.2
2018-08-27T10:51:40.968Z,1017.16
2018-08-27T10:52:40.884Z,1017.19
2018-08-27T10:53:40.734Z,1017.15
2018-08-27T10:54:40.743Z,1017.2
2018-08-27T10:55:40.967Z,1017.15
2018-08-27T10:56:40.731Z,1017.16
2018-08-27T10:57:40.781Z,1017.15
2018-08-27T10:58:40.850Z,1017.15
2018-08-27T10:59:40.909Z,1017.13
2018-08-27T11:00:40.809Z,1017.13
2018-08-27T11:01:40.744Z,1017.11
2018-08-27T11:02:41.078Z,1017.11
2018-08-27T11:03:40.746Z,1017.12
2018-08-27T11:04:41.025Z,1017.09
2018-08-27T11:05:40.783Z,1017.13
2018-08-27T11:06:40.791Z,1017.16
2018-08-27T11:07:40.779Z,1017.18
2018-08-27T11:08:40.789Z,1017.13
2018-08-27T11:09:41.048Z,1017.17
2018-08-27T11:10:40.938Z,1017.16
2018-08-27T11:11:41.167Z,1017.15
2018-08-27T11:12:41.276Z,1017.13
2018-08-27T11:13:40.949Z,1017.18
2018-08-27T11:14:40.817Z,1017.1
2018-08-27T11:15:40.785Z,1017.14
2018-08-27T11:16:40.765Z,1017.16
2018-08-27T11:17:40.792Z,1017.15
2018-08-27T11:18:40.743Z,1017.18
2018-08-27T11:19:41.271Z,1017.19
2018-08-27T11:20:41.175Z,1017.2
2018-08-27T11:21:40.850Z,1017.23
2018-08-27T11:22:40.770Z,1017.28
2018-08-27T11:23:40.779Z,1017.32
2018-08-27T11:24:40.774Z,1017.36
2018-08-27T11:25:40.800Z,1017.31
2018-08-27T11:26:41.848Z,1017.35
2018-08-27T11:27:40.749Z,1017.37
2018-08-27T11:28:40.869Z,1017.36
2018-08-27T11:29:40.991Z,1017.38
2018-08-27T11:30:40.805Z,1017.36
2018-08-27T11:31:40.780Z,1017.4
2018-08-27T11:32:40.809Z,1017.38
2018-08-27T11:33:40.779Z,1017.42
2018-08-27T11:34:40.782Z,1017.46
2018-08-27T11:35:41.559Z,1017.46
2018-08-27T11:36:40.979Z,1017.42
2018-08-27T11:37:41.448Z,1017.42
2018-08-27T11:38:40.835Z,1017.39
2018-08-27T11:39:41.047Z,1017.37
2018-08-27T11:40:40.805Z,1017.34
2018-08-27T11:41:40.800Z,1017.37
2018-08-27T11:42:42.014Z,1017.37
2018-08-27T11:43:40.825Z,1017.34
2018-08-27T11:44:41.091Z,1017.37
2018-08-27T11:45:40.964Z,1017.32
2018-08-27T11:46:40.790Z,1017.35
2018-08-27T11:47:41.103Z,1017.32
2018-08-27T11:48:40.862Z,1017.28
2018-08-27T11:49:40.818Z,1017.3
2018-08-27T11:50:41.713Z,1017.34
2018-08-27T11:51:40.925Z,1017.3
2018-08-27T11:52:40.878Z,1017.29
2018-08-27T11:53:40.918Z,1017.35
2018-08-27T11:54:40.839Z,1017.35
2018-08-27T11:55:40.966Z,1017.37
2018-08-27T11:56:41.889Z,1017.35
2018-08-27T11:57:40.862Z,1017.37
2018-08-27T11:58:41.151Z,1017.36
2018-08-27T11:59:40.799Z,1017.34
2018-08-27T12:00:40.983Z,1017.35
2018-08-27T12:01:40.816Z,1017.36
2018-08-27T12:02:41.308Z,1017.33
2018-08-27T12:03:41.001Z,1017.35
2018-08-27T12:04:40.817Z,1017.31
2018-08-27T12:05:40.820Z,1017.31
2018-08-27T12:06:40.893Z,1017.3
2018-08-27T12:07:41.177Z,1017.31
2018-08-27T12:08:40.833Z,1017.29